createdAt,value
2019-03-19T00:01:36.729Z,14.80
2019-03-19T00:04:05.774Z,10.67
2019-03-19T00:06:34.906Z,10.33
2019-03-19T00:09:05.346Z,10.57
2019-03-19T00:11:34.382Z,16.33
2019-03-19T00:14:03.178Z,9.30
2019-03-19T00:16:32.051Z,18.37
2019-03-19T00:19:00.921Z,10.20
2019-03-19T00:21:29.932Z,10.73
2019-03-19T00:23:58.774Z,11.87
2019-03-19T00:26:27.695Z,12.37
2019-03-19T00:28:56.765Z,8.27
2019-03-19T00:31:25.614Z,13.23
2019-03-19T00:33:54.469Z,9.90
2019-03-19T00:36:23.239Z,8.83
2019-03-19T00:38:54.490Z,11.17
2019-03-19T00:41:23.386Z,9.73
2019-03-19T00:43:52.588Z,8.03
2019-03-19T00:46:21.372Z,11.13
2019-03-19T00:48:50.503Z,14.90
2019-03-19T00:51:19.462Z,9.00
2019-03-19T00:53:48.523Z,8.13
2019-03-19T00:56:17.756Z,11.37
2019-03-19T00:58:46.781Z,12.03
2019-03-19T01:01:15.692Z,11.23
2019-03-19T01:03:44.619Z,12.93
2019-03-19T01:06:13.606Z,11.43
2019-03-19T01:08:43.100Z,13.43
2019-03-19T01:11:12.425Z,14.17
2019-03-19T01:13:41.268Z,10.67
2019-03-19T01:16:10.267Z,12.33
2019-03-19T01:18:39.267Z,13.50
2019-03-19T01:21:08.337Z,12.93
2019-03-19T01:23:37.247Z,17.47
2019-03-19T01:26:06.113Z,10.70
2019-03-19T01:28:35.231Z,9.17
2019-03-19T01:31:04.187Z,8.90
2019-03-19T01:33:33.104Z,14.27
2019-03-19T01:36:01.962Z,13.63
2019-03-19T01:38:30.823Z,11.20
2019-03-19T01:41:00.043Z,10.80
2019-03-19T01:43:29.079Z,11.40
2019-03-19T01:45:58.187Z,14.23
2019-03-19T01:48:31.554Z,18.60
2019-03-19T01:51:00.401Z,9.33
2019-03-19T01:53:29.183Z,14.37
2019-03-19T01:56:05.096Z,13.80
2019-03-19T01:58:29.634Z,11.40
2019-03-19T02:00:58.640Z,21.17
2019-03-19T02:03:27.507Z,9.73
2019-03-19T02:05:56.510Z,10.87
2019-03-19T02:08:25.440Z,12.13
2019-03-19T02:10:54.294Z,18.37
2019-03-19T02:13:23.225Z,11.87
2019-03-19T02:15:52.120Z,12.77
2019-03-19T02:18:21.219Z,17.87
2019-03-19T02:20:50.807Z,10.50
2019-03-19T02:23:19.681Z,9.10
2019-03-19T02:25:48.796Z,12.87
2019-03-19T02:28:17.550Z,9.03
2019-03-19T02:30:46.364Z,15.07
2019-03-19T02:33:15.962Z,16.00
2019-03-19T02:35:44.816Z,14.37
2019-03-19T02:38:13.849Z,12.63
2019-03-19T02:40:42.799Z,11.97
2019-03-19T02:43:11.747Z,11.97
2019-03-19T02:45:40.518Z,10.13
2019-03-19T02:48:09.343Z,11.27
2019-03-19T02:50:38.508Z,11.97
2019-03-19T02:53:07.326Z,13.40
2019-03-19T02:55:36.135Z,19.50
2019-03-19T02:58:04.964Z,14.57
2019-03-19T03:00:33.839Z,18.00
2019-03-19T03:03:02.660Z,13.83
2019-03-19T03:05:31.593Z,11.63
2019-03-19T03:08:00.497Z,12.53
2019-03-19T03:10:29.377Z,16.37
2019-03-19T03:12:58.295Z,9.93
2019-03-19T03:15:27.362Z,13.03
2019-03-19T03:17:57.040Z,13.73
2019-03-19T03:20:26.606Z,16.27
2019-03-19T03:22:55.906Z,10.53
2019-03-19T03:25:24.842Z,13.70
2019-03-19T03:27:54.135Z,11.17
2019-03-19T03:30:22.954Z,16.70
2019-03-19T03:32:52.132Z,10.83
2019-03-19T03:35:20.936Z,14.63
2019-03-19T03:37:49.973Z,10.80
2019-03-19T03:40:19.911Z,8.00
2019-03-19T03:42:48.892Z,10.60
2019-03-19T03:45:17.785Z,12.97
2019-03-19T03:47:46.972Z,16.73
2019-03-19T03:50:15.887Z,8.73
2019-03-19T03:52:44.877Z,16.63
2019-03-19T03:55:13.794Z,14.03
2019-03-19T03:57:42.699Z,12.27
2019-03-19T04:00:12.557Z,11.57
2019-03-19T04:02:44.602Z,13.37
2019-03-19T04:05:12.061Z,20.70
2019-03-19T04:07:41.217Z,11.20
2019-03-19T04:10:10.544Z,13.10
2019-03-19T04:12:39.656Z,11.07
2019-03-19T04:15:09.408Z,17.17
2019-03-19T04:17:38.268Z,11.47
2019-03-19T04:20:07.246Z,16.23
2019-03-19T04:22:36.248Z,13.17
2019-03-19T04:25:05.805Z,16.87
2019-03-19T04:27:34.936Z,15.47
2019-03-19T04:30:04.740Z,12.30
2019-03-19T04:32:33.629Z,15.20
2019-03-19T04:35:02.668Z,11.53
2019-03-19T04:37:31.492Z,13.40
2019-03-19T04:40:00.386Z,14.50
2019-03-19T04:42:29.257Z,11.30
2019-03-19T04:44:58.018Z,11.87
2019-03-19T04:47:26.948Z,21.27
2019-03-19T04:49:55.748Z,13.17
2019-03-19T04:52:24.939Z,11.97
2019-03-19T04:54:54.306Z,17.80
2019-03-19T04:57:26.960Z,16.33
2019-03-19T04:59:53.623Z,14.57
2019-03-19T05:02:22.942Z,16.93
2019-03-19T05:04:51.766Z,15.70
2019-03-19T05:07:21.447Z,12.90
2019-03-19T05:09:50.242Z,12.90
2019-03-19T05:12:19.062Z,10.73
2019-03-19T05:14:47.874Z,13.70
2019-03-19T05:17:16.940Z,16.23
2019-03-19T05:19:45.723Z,13.40
2019-03-19T05:22:14.687Z,12.37
2019-03-19T05:24:43.515Z,15.77
2019-03-19T05:27:13.989Z,16.73
2019-03-19T05:29:43.083Z,15.07
2019-03-19T05:32:12.114Z,11.80
2019-03-19T05:34:41.110Z,13.07
2019-03-19T05:37:09.949Z,10.07
2019-03-19T05:39:39.040Z,11.03
2019-03-19T05:42:07.833Z,7.83
2019-03-19T05:44:36.682Z,12.83
2019-03-19T05:47:05.502Z,9.67
2019-03-19T05:49:34.440Z,16.73
2019-03-19T05:52:03.289Z,12.93
2019-03-19T05:54:33.712Z,13.50
2019-03-19T05:57:02.559Z,16.77
2019-03-19T05:59:31.363Z,13.23
2019-03-19T06:02:00.275Z,13.43
2019-03-19T06:04:29.434Z,14.70
2019-03-19T06:06:58.334Z,16.03
2019-03-19T06:09:27.406Z,13.17
2019-03-19T06:11:56.955Z,17.17
2019-03-19T06:14:25.835Z,12.70
2019-03-19T06:16:54.619Z,21.43
2019-03-19T06:19:23.423Z,9.53
2019-03-19T06:21:52.269Z,14.97
2019-03-19T06:24:21.185Z,17.13
2019-03-19T06:26:50.172Z,11.73
2019-03-19T06:29:19.037Z,12.73
2019-03-19T06:31:47.980Z,8.80
2019-03-19T06:34:17.542Z,11.13
2019-03-19T06:36:46.481Z,16.80
2019-03-19T06:39:15.326Z,15.63
2019-03-19T06:41:44.813Z,15.63
2019-03-19T06:44:13.605Z,9.60
2019-03-19T06:46:42.438Z,7.90
2019-03-19T06:49:11.267Z,17.77
2019-03-19T06:51:40.299Z,16.90
2019-03-19T06:54:09.220Z,12.03
2019-03-19T06:56:38.727Z,12.50
2019-03-19T06:59:07.559Z,19.33
2019-03-19T07:01:39.376Z,17.23
2019-03-19T07:04:08.235Z,14.87
2019-03-19T07:06:37.031Z,15.27
2019-03-19T07:09:07.213Z,9.97
2019-03-19T07:11:36.192Z,15.13
2019-03-19T07:14:04.983Z,13.63
2019-03-19T07:16:33.846Z,11.63
2019-03-19T07:20:00.604Z,10.10
2019-03-19T07:21:59.769Z,9.67
2019-03-19T07:24:28.895Z,16.33
2019-03-19T07:26:57.884Z,11.23
2019-03-19T07:29:26.702Z,11.80
2019-03-19T07:31:55.603Z,10.83
2019-03-19T07:34:25.173Z,14.53
2019-03-19T07:36:53.943Z,18.53
2019-03-19T07:39:23.051Z,17.10
2019-03-19T07:41:52.090Z,15.10
2019-03-19T07:44:20.987Z,13.67
2019-03-19T07:46:49.775Z,14.03
2019-03-19T07:49:18.584Z,8.50
2019-03-19T07:51:47.447Z,21.33
2019-03-19T07:54:16.266Z,16.30
2019-03-19T07:56:45.232Z,12.13
2019-03-19T07:59:13.998Z,18.27
2019-03-19T08:01:42.838Z,15.70
2019-03-19T08:04:11.868Z,14.13
2019-03-19T08:06:41.030Z,17.13
2019-03-19T08:09:10.159Z,8.33
2019-03-19T08:11:38.956Z,16.43
2019-03-19T08:14:07.783Z,10.50
2019-03-19T08:16:36.745Z,17.13
2019-03-19T08:19:05.605Z,15.77
2019-03-19T08:21:34.394Z,15.40
2019-03-19T08:24:04.022Z,17.17
2019-03-19T08:26:32.906Z,13.87
2019-03-19T08:29:02.575Z,16.77
2019-03-19T08:31:31.399Z,16.20
2019-03-19T08:34:00.211Z,13.07
2019-03-19T08:36:29.201Z,14.27
2019-03-19T08:38:58.021Z,12.07
2019-03-19T08:41:26.912Z,17.57
2019-03-19T08:43:56.139Z,19.97
2019-03-19T08:46:24.991Z,18.93
2019-03-19T08:48:53.756Z,15.43
2019-03-19T08:51:23.238Z,15.57
2019-03-19T08:53:52.014Z,16.80
2019-03-19T08:56:20.842Z,15.73
2019-03-19T08:58:49.879Z,9.50
2019-03-19T09:01:18.811Z,12.83
2019-03-19T09:03:48.102Z,17.53
2019-03-19T09:06:16.964Z,14.17
2019-03-19T09:08:45.722Z,15.77
2019-03-19T09:11:14.495Z,10.87
2019-03-19T09:13:43.277Z,13.60
2019-03-19T09:16:12.515Z,11.53
2019-03-19T09:18:41.549Z,11.03
2019-03-19T09:21:10.311Z,12.07
2019-03-19T09:23:39.923Z,8.20
2019-03-19T09:26:08.811Z,7.93
2019-03-19T09:28:37.613Z,10.20
2019-03-19T09:31:07.298Z,10.17
2019-03-19T09:33:36.129Z,12.27
2019-03-19T09:36:05.146Z,14.23
2019-03-19T09:38:33.918Z,13.10
2019-03-19T09:41:02.770Z,9.00
2019-03-19T09:43:31.850Z,8.63
2019-03-19T09:46:00.901Z,9.53
2019-03-19T09:48:29.788Z,9.40
2019-03-19T09:50:58.616Z,10.00
2019-03-19T09:53:28.064Z,10.33
2019-03-19T09:55:56.850Z,9.60
2019-03-19T09:58:25.783Z,11.30
2019-03-19T10:00:54.707Z,4.30
2019-03-19T10:03:23.482Z,6.23
2019-03-19T10:05:52.408Z,6.77
2019-03-19T10:08:21.243Z,7.40
2019-03-19T10:10:56.361Z,8.23
2019-03-19T10:13:25.156Z,12.03
2019-03-19T10:15:54.005Z,9.40
2019-03-19T10:18:32.283Z,8.10
2019-03-19T10:21:01.144Z,9.67
2019-03-19T10:23:30.163Z,7.50
2019-03-19T10:25:59.086Z,7.65
2019-03-19T10:28:28.477Z,7.00
2019-03-19T10:30:57.274Z,10.37
2019-03-19T10:33:26.091Z,6.83
2019-03-19T10:35:54.853Z,10.33
2019-03-19T10:38:24.431Z,7.07
2019-03-19T10:40:53.182Z,8.53
2019-03-19T10:43:22.133Z,9.87
2019-03-19T10:45:50.947Z,7.40
2019-03-19T10:48:19.987Z,7.70
2019-03-19T10:50:48.778Z,6.37
2019-03-19T10:53:17.719Z,6.87
2019-03-19T10:55:46.731Z,7.83
2019-03-19T10:58:15.567Z,6.07
2019-03-19T11:00:44.710Z,6.77
2019-03-19T11:03:13.622Z,7.83
2019-03-19T11:05:42.618Z,4.90
2019-03-19T11:08:11.849Z,8.93
2019-03-19T11:10:40.658Z,8.80
2019-03-19T11:13:09.402Z,6.83
2019-03-19T11:15:38.214Z,9.67
2019-03-19T11:18:07.088Z,9.83
2019-03-19T11:20:35.938Z,4.77
2019-03-19T11:23:05.497Z,11.33
2019-03-19T11:25:35.028Z,10.40
2019-03-19T11:28:03.834Z,8.40
2019-03-19T11:30:32.785Z,6.33
2019-03-19T11:33:01.668Z,5.67
2019-03-19T11:35:31.036Z,7.93
2019-03-19T11:38:00.540Z,5.23
2019-03-19T11:40:31.641Z,5.87
2019-03-19T11:43:03.646Z,4.60
2019-03-19T11:45:38.207Z,9.10
2019-03-19T11:48:29.596Z,5.90
2019-03-19T11:51:17.148Z,6.10
2019-03-19T11:53:50.971Z,9.23
2019-03-19T11:56:35.523Z,5.77
2019-03-19T11:59:57.029Z,7.97
2019-03-19T12:03:16.776Z,4.57
2019-03-19T12:23:38.569Z,6.90
2019-03-19T12:26:07.574Z,4.47
2019-03-19T12:28:39.889Z,6.77
2019-03-19T12:31:07.600Z,6.20
2019-03-19T12:33:40.827Z,6.43
2019-03-19T12:36:07.121Z,10.10
2019-03-19T12:38:36.915Z,8.07
2019-03-19T12:41:05.789Z,4.00
2019-03-19T12:43:34.707Z,5.67
2019-03-19T12:46:03.594Z,7.80
2019-03-19T12:48:35.771Z,7.93
2019-03-19T14:09:35.585Z,8.90
2019-03-19T14:12:00.671Z,8.03
2019-03-19T14:14:29.657Z,5.77
2019-03-19T14:16:58.502Z,11.57
2019-03-19T14:19:27.278Z,9.07
2019-03-19T14:22:00.027Z,4.30
2019-03-19T14:24:28.876Z,5.57
2019-03-19T14:26:57.812Z,9.50
2019-03-19T14:29:26.737Z,2.63
2019-03-19T14:31:55.562Z,5.83
2019-03-19T14:34:24.310Z,9.50
2019-03-19T14:36:53.814Z,7.73
2019-03-19T14:39:22.595Z,4.90
2019-03-19T14:41:51.382Z,9.67
2019-03-19T14:44:21.959Z,9.97
2019-03-19T14:46:50.929Z,5.97
2019-03-19T14:49:20.206Z,7.40
2019-03-19T14:51:49.226Z,7.93
2019-03-19T14:54:18.369Z,8.10
2019-03-19T14:56:47.357Z,5.47
2019-03-19T14:59:16.484Z,6.93
2019-03-19T15:01:47.302Z,6.80
2019-03-19T15:04:16.115Z,6.10
2019-03-19T15:06:44.931Z,5.27
2019-03-19T15:09:13.906Z,8.27
2019-03-19T15:11:42.842Z,5.23
2019-03-19T15:14:11.736Z,11.13
2019-03-19T15:16:41.947Z,5.60
2019-03-19T15:19:11.024Z,4.60
2019-03-19T15:21:39.841Z,5.77
2019-03-19T15:24:08.638Z,9.17
2019-03-19T15:26:37.699Z,8.73
2019-03-19T15:29:06.576Z,7.87
2019-03-19T15:31:35.576Z,5.97
2019-03-19T15:34:04.423Z,9.50
2019-03-19T15:36:33.263Z,6.90
2019-03-19T15:39:02.479Z,8.40
2019-03-19T15:41:31.287Z,10.20
2019-03-19T15:44:01.359Z,8.40
2019-03-19T15:46:30.316Z,4.43
2019-03-19T15:49:00.478Z,6.47
2019-03-19T15:51:29.514Z,7.30
2019-03-19T15:53:58.871Z,6.77
2019-03-19T15:56:27.785Z,6.37
2019-03-19T15:58:56.641Z,7.50
2019-03-19T16:01:27.814Z,5.00
2019-03-19T16:03:56.758Z,8.37
2019-03-19T16:06:25.642Z,5.50
2019-03-19T16:08:54.471Z,6.63
2019-03-19T16:11:23.387Z,5.53
2019-03-19T16:13:52.202Z,7.57
2019-03-19T16:16:21.109Z,4.17
2019-03-19T16:18:49.942Z,6.33
2019-03-19T16:21:18.810Z,6.00
2019-03-19T16:23:47.680Z,6.43
2019-03-19T16:26:16.914Z,6.33
2019-03-19T16:28:45.697Z,6.77
2019-03-19T16:31:14.561Z,7.63
2019-03-19T16:33:43.414Z,8.37
2019-03-19T16:36:12.833Z,8.37
2019-03-19T16:38:41.629Z,5.53
2019-03-19T16:41:10.625Z,6.13
2019-03-19T16:43:39.917Z,7.33
2019-03-19T16:46:08.788Z,5.50
2019-03-19T16:48:37.807Z,6.80
2019-03-19T16:51:06.765Z,7.97
2019-03-19T16:53:35.896Z,6.07
2019-03-19T16:56:04.816Z,4.33
2019-03-19T16:58:33.731Z,10.53
2019-03-19T17:01:02.586Z,8.60
2019-03-19T17:03:31.693Z,6.97
2019-03-19T17:06:01.130Z,6.55
2019-03-19T17:08:30.086Z,8.13
2019-03-19T17:10:58.915Z,5.93
2019-03-19T17:13:28.507Z,8.80
2019-03-19T17:15:58.428Z,5.83
2019-03-19T17:18:27.398Z,7.33
2019-03-19T17:20:56.272Z,8.57
2019-03-19T17:23:25.197Z,6.33
2019-03-19T17:25:54.187Z,6.73
2019-03-19T17:28:23.157Z,6.27
2019-03-19T17:30:51.981Z,6.40
2019-03-19T17:33:20.839Z,8.30
2019-03-19T17:35:49.642Z,7.33
2019-03-19T17:38:21.070Z,8.53
2019-03-19T17:40:49.863Z,6.10
2019-03-19T17:43:18.758Z,7.87
2019-03-19T17:45:47.900Z,7.33
2019-03-19T17:48:17.044Z,8.87
2019-03-19T17:50:46.448Z,6.63
2019-03-19T17:53:15.368Z,10.27
2019-03-19T17:55:45.183Z,7.47
2019-03-19T17:58:14.792Z,10.20
2019-03-19T18:00:44.663Z,9.27
2019-03-19T18:03:13.569Z,7.00
2019-03-19T18:06:01.441Z,5.47
2019-03-19T18:08:30.340Z,11.00
2019-03-19T18:10:59.401Z,11.30
2019-03-19T18:13:28.325Z,7.40
2019-03-19T18:15:57.360Z,10.20
2019-03-19T18:18:26.692Z,9.60
2019-03-19T18:20:55.718Z,11.47
2019-03-19T18:23:24.604Z,7.97
2019-03-19T18:25:54.818Z,10.43
2019-03-19T18:28:23.704Z,7.37
2019-03-19T18:30:52.865Z,10.37
2019-03-19T18:33:21.715Z,10.87
2019-03-19T18:35:53.517Z,10.40
2019-03-19T18:38:21.574Z,11.60
2019-03-19T18:40:50.630Z,12.13
2019-03-19T18:43:19.448Z,8.80
2019-03-19T18:45:48.846Z,10.60
2019-03-19T18:48:18.396Z,12.33
2019-03-19T18:50:47.547Z,8.20
2019-03-19T18:53:17.170Z,10.87
2019-03-19T18:55:46.086Z,12.97
2019-03-19T18:58:14.898Z,11.50
2019-03-19T19:00:44.106Z,11.63
2019-03-19T19:03:13.011Z,13.20
2019-03-19T19:05:41.957Z,11.50
2019-03-19T19:08:11.126Z,13.37
2019-03-19T19:10:40.073Z,17.37
2019-03-19T19:13:09.629Z,16.63
2019-03-19T19:15:38.668Z,15.47
2019-03-19T19:18:07.584Z,13.30
2019-03-19T19:20:36.399Z,15.70
2019-03-19T19:23:05.412Z,18.13
2019-03-19T19:25:34.440Z,16.27
2019-03-19T19:28:03.353Z,19.27
2019-03-19T19:30:32.675Z,13.77
2019-03-19T19:33:03.064Z,15.43
2019-03-19T19:35:31.998Z,14.23
2019-03-19T19:38:03.531Z,13.77
2019-03-19T19:40:32.858Z,13.67
2019-03-19T19:43:02.811Z,18.67
2019-03-19T19:45:32.039Z,16.30
2019-03-19T19:48:02.057Z,16.07
2019-03-19T19:50:31.176Z,12.83
2019-03-19T19:53:00.146Z,16.63
2019-03-19T19:55:29.445Z,18.30
2019-03-19T19:57:58.477Z,14.07
2019-03-19T20:00:28.216Z,14.23
2019-03-19T20:02:57.385Z,14.83
2019-03-19T20:05:26.797Z,22.53
2019-03-19T20:07:55.922Z,16.77
2019-03-19T20:10:25.476Z,14.87
2019-03-19T20:12:54.847Z,16.53
2019-03-19T20:15:24.107Z,20.30
2019-03-19T20:17:53.019Z,18.37
2019-03-19T20:20:21.947Z,18.07
2019-03-19T20:22:51.016Z,16.90
2019-03-19T20:25:20.048Z,16.60
2019-03-19T20:27:49.076Z,16.43
2019-03-19T20:30:19.208Z,16.30
2019-03-19T20:32:48.348Z,21.03
2019-03-19T20:35:17.513Z,16.67
2019-03-19T20:37:46.464Z,18.03
2019-03-19T20:40:15.705Z,14.37
2019-03-19T20:42:45.263Z,19.33
2019-03-19T20:45:14.182Z,14.63
2019-03-19T20:47:43.356Z,16.33
2019-03-19T20:50:14.085Z,14.77
2019-03-19T20:52:43.024Z,14.30
2019-03-19T20:55:12.141Z,15.50
2019-03-19T20:57:41.173Z,13.83
2019-03-19T21:00:11.464Z,14.70
2019-03-19T21:02:40.838Z,16.30
2019-03-19T21:05:09.901Z,15.03
2019-03-19T21:07:38.853Z,18.10
2019-03-19T21:10:09.078Z,15.37
2019-03-19T21:12:38.125Z,15.37
2019-03-19T21:15:07.308Z,13.63
2019-03-19T21:17:36.196Z,13.53
2019-03-19T21:20:05.474Z,12.83
2019-03-19T21:22:34.379Z,12.70
2019-03-19T21:25:03.486Z,14.27
2019-03-19T21:27:32.386Z,14.93
2019-03-19T21:30:01.279Z,16.90
2019-03-19T21:32:30.638Z,14.83
2019-03-19T21:34:59.787Z,16.97
2019-03-19T21:37:29.807Z,16.17
2019-03-19T21:39:59.082Z,18.20
2019-03-19T21:42:28.234Z,17.97
2019-03-19T21:44:57.347Z,14.70
2019-03-19T21:47:27.031Z,14.17
2019-03-19T21:49:56.215Z,18.67
2019-03-19T21:52:25.495Z,15.97
2019-03-19T21:54:54.634Z,14.47
2019-03-19T21:57:23.701Z,12.90
2019-03-19T21:59:53.045Z,18.57
2019-03-19T22:02:22.065Z,12.33
2019-03-19T22:04:51.396Z,14.97
2019-03-19T22:07:20.370Z,14.80
2019-03-19T22:09:49.341Z,15.87
2019-03-19T22:12:18.258Z,12.73
2019-03-19T22:14:47.233Z,12.73
2019-03-19T22:17:16.185Z,14.80
2019-03-19T22:19:45.085Z,14.27
2019-03-19T22:22:13.918Z,13.53
2019-03-19T22:24:43.062Z,13.03
2019-03-19T22:27:12.681Z,13.17
2019-03-19T22:29:42.234Z,13.43
2019-03-19T22:32:12.220Z,15.23
2019-03-19T22:34:41.430Z,14.40
2019-03-19T22:37:10.621Z,13.20
2019-03-19T22:39:39.625Z,13.03
2019-03-19T22:42:09.372Z,13.53
2019-03-19T22:44:38.286Z,13.60
2019-03-19T22:47:07.257Z,11.10
2019-03-19T22:49:36.665Z,14.27
2019-03-19T22:52:05.887Z,12.53
2019-03-19T22:54:35.011Z,13.87
2019-03-19T22:57:04.136Z,15.83
2019-03-19T22:59:32.912Z,12.37
2019-03-19T23:02:03.015Z,13.33
2019-03-19T23:04:32.569Z,14.07
2019-03-19T23:07:03.808Z,11.63
2019-03-19T23:09:32.757Z,11.40
2019-03-19T23:12:02.745Z,13.50
2019-03-19T23:14:31.660Z,15.70
2019-03-19T23:17:00.539Z,13.17
2019-03-19T23:19:29.361Z,15.20
2019-03-19T23:21:58.271Z,10.23
2019-03-19T23:24:27.044Z,15.60
2019-03-19T23:26:55.927Z,12.90
2019-03-19T23:29:24.767Z,12.93
2019-03-19T23:31:53.594Z,18.87
2019-03-19T23:34:22.504Z,13.83
2019-03-19T23:36:51.315Z,12.33
2019-03-19T23:39:20.111Z,12.70
2019-03-19T23:41:49.034Z,16.93
2019-03-19T23:44:17.880Z,13.75
2019-03-19T23:46:46.749Z,14.10
2019-03-19T23:49:15.570Z,14.90
2019-03-19T23:51:44.569Z,13.83
2019-03-19T23:54:13.610Z,18.87
2019-03-19T23:56:42.737Z,15.30
2019-03-19T23:59:13.665Z,16.23
